Time;durP1;ratioP1;P1;durP2;ratioP2;P2;SDS_P1;SDS_P2;PMS_P1;PMS_P2;Temp;Humidity;BMP_temperature;BMP_pressure;BME280_temperature;BME280_humidity;BME280_pressure;Samples;Min_cycle;Max_cycle;Signal;HPM_P1;HPM_P2
2023/07/16 00:00:35;;;;;;;8.87;2.23;;;;;;;21.99;74.01;99958.03;6220584;28;20127;-71
2023/07/16 00:03:38;;;;;;;5.35;2.35;;;;;;;21.95;74.39;99957.56;6222295;28;20053;-72
2023/07/16 00:06:39;;;;;;;2.53;2.08;;;;;;;21.92;73.72;99960.53;6222022;28;20054;-71
2023/07/16 00:09:40;;;;;;;3.63;1.90;;;;;;;21.87;74.21;99962.91;6222229;28;20123;-71
2023/07/16 00:12:40;;;;;;;3.40;2.30;;;;;;;21.78;75.38;99963.91;6221905;28;20077;-71
2023/07/16 00:15:42;;;;;;;4.13;2.30;;;;;;;21.72;75.79;99966.25;6225170;28;20080;-71
2023/07/16 00:18:44;;;;;;;2.50;1.80;;;;;;;21.64;76.00;99960.94;6225535;28;20089;-71
2023/07/16 00:21:45;;;;;;;2.88;1.98;;;;;;;21.48;76.21;99967.06;6226204;28;20045;-71
2023/07/16 00:24:46;;;;;;;2.77;2.00;;;;;;;21.53;76.02;99969.22;6226413;28;20050;-71
2023/07/16 00:27:46;;;;;;;3.97;1.73;;;;;;;21.49;77.81;99967.91;6225388;28;20057;-71
2023/07/16 00:30:48;;;;;;;4.83;1.97;;;;;;;21.49;79.11;99957.28;6226041;28;20054;-71
2023/07/16 00:33:49;;;;;;;2.72;2.00;;;;;;;21.57;77.57;99970.56;6224934;28;20570;-71
2023/07/16 00:36:49;;;;;;;3.60;2.20;;;;;;;21.34;77.64;99960.56;6226461;28;20054;-71
2023/07/16 00:39:51;;;;;;;2.90;2.00;;;;;;;21.34;78.64;99957.91;6225063;28;20050;-71
2023/07/16 00:42:51;;;;;;;4.03;1.95;;;;;;;21.31;78.99;99968.03;6224670;28;20057;-71
2023/07/16 00:45:57;;;;;;;3.50;2.50;;;;;;;21.28;79.10;99955.91;6224851;28;20054;-71
2023/07/16 00:48:58;;;;;;;3.42;2.13;;;;;;;21.20;78.90;99963.06;6225865;28;20050;-71
2023/07/16 00:52:00;;;;;;;3.17;1.83;;;;;;;21.24;78.87;99962.56;6224338;28;20057;-71
2023/07/16 00:55:00;;;;;;;;;;;;;;;21.23;79.63;99963.56;6226044;28;20442;-71
2023/07/16 00:58:06;;;;;;;2.83;1.90;;;;;;;21.21;79.99;99962.03;6224591;28;19936;-70
2023/07/16 01:01:07;;;;;;;3.55;1.90;;;;;;;21.03;81.84;99952.44;6224155;28;20050;-71
2023/07/16 01:04:08;;;;;;;3.40;2.43;;;;;;;21.01;83.43;99956.25;6224297;28;20056;-71
2023/07/16 01:07:11;;;;;;;8.80;2.17;;;;;;;20.98;84.50;99951.25;6225373;28;20505;-71
2023/07/16 01:10:12;;;;;;;2.28;1.90;;;;;;;21.01;84.25;99949.09;6224355;28;20406;-70
2023/07/16 01:13:14;;;;;;;2.97;1.87;;;;;;;20.99;82.95;99945.78;6225140;28;20081;-70
2023/07/16 01:16:20;;;;;;;3.15;2.20;;;;;;;20.91;83.28;99943.13;6224233;28;20054;-71
2023/07/16 01:19:21;;;;;;;2.45;2.20;;;;;;;20.81;83.41;99939.78;6224180;28;20055;-71
2023/07/16 01:22:28;;;;;;;4.93;2.20;;;;;;;20.77;84.00;99943.75;6224831;28;20141;-71
2023/07/16 01:25:50;;;;;;;3.80;2.10;;;;;;;20.78;83.80;99948.09;6223970;28;20577;-71
2023/07/16 01:28:54;;;;;;;;;;;;;;;20.76;84.50;99942.94;6225484;28;20094;-71
2023/07/16 01:32:00;;;;;;;2.42;1.92;;;;;;;20.66;84.85;99942.25;6223789;28;19928;-71
2023/07/16 01:35:02;;;;;;;3.63;2.45;;;;;;;20.64;85.26;99944.22;6224736;28;20052;-71
2023/07/16 01:38:04;;;;;;;4.03;2.25;;;;;;;20.59;85.12;99930.63;6224612;28;20406;-70
2023/07/16 01:41:07;;;;;;;2.33;2.03;;;;;;;20.49;85.36;99926.25;6223130;28;20132;-71
2023/07/16 01:44:08;;;;;;;2.53;2.10;;;;;;;20.47;85.57;99924.78;6223303;28;20108;-71
2023/07/16 01:47:10;;;;;;;2.37;1.93;;;;;;;20.44;85.61;99928.56;6224388;28;20053;-71
2023/07/16 01:50:11;;;;;;;3.40;2.20;;;;;;;20.53;86.15;99929.44;6224218;28;20058;-70
2023/07/16 01:53:12;;;;;;;2.53;1.93;;;;;;;20.44;87.17;99933.84;6224193;28;20050;-71
2023/07/16 01:56:13;;;;;;;2.33;1.97;;;;;;;20.45;87.85;99934.69;6224333;28;20056;-70
2023/07/16 01:59:13;;;;;;;3.33;2.33;;;;;;;20.47;86.23;99936.19;6222834;28;20119;-71
2023/07/16 02:02:14;;;;;;;3.13;2.10;;;;;;;20.44;88.12;99931.19;6222869;28;20053;-71
2023/07/16 02:05:17;;;;;;;3.60;2.20;;;;;;;20.34;87.11;99927.84;6222892;28;20053;-71
2023/07/16 02:08:18;;;;;;;2.67;2.17;;;;;;;20.26;86.47;99928.66;6222683;28;20050;-71
2023/07/16 02:11:19;;;;;;;4.57;2.10;;;;;;;20.39;86.94;99933.50;6223045;28;20052;-70
2023/07/16 02:14:22;;;;;;;3.23;2.40;;;;;;;20.44;87.16;99927.72;6223639;28;20383;-71
2023/07/16 02:17:25;;;;;;;4.90;2.55;;;;;;;20.39;87.41;99930.88;6222604;28;20054;-71
2023/07/16 02:20:26;;;;;;;2.65;2.03;;;;;;;20.40;86.58;99927.22;6223689;28;20406;-72
2023/07/16 02:23:27;;;;;;;3.37;2.30;;;;;;;20.38;86.92;99926.53;6223859;28;20053;-71
2023/07/16 02:26:28;;;;;;;5.00;2.07;;;;;;;20.38;86.77;99923.06;6222273;28;20066;-70
2023/07/16 02:29:31;;;;;;;3.47;2.07;;;;;;;20.29;87.32;99923.03;6223403;28;20418;-70
2023/07/16 02:32:32;;;;;;;2.78;2.15;;;;;;;20.27;88.11;99926.84;6222105;28;20060;-71
2023/07/16 02:35:35;;;;;;;3.60;2.30;;;;;;;20.33;88.75;99932.31;6222273;28;20585;-71
2023/07/16 02:38:36;;;;;;;5.32;2.35;;;;;;;20.26;89.15;99925.16;6221899;28;20286;-71
2023/07/16 02:41:36;;;;;;;2.10;1.90;;;;;;;20.32;89.52;99924.53;6222117;28;20133;-71
2023/07/16 02:44:41;;;;;;;3.60;2.30;;;;;;;20.26;89.15;99922.53;6222026;28;20138;-71
2023/07/16 02:47:42;;;;;;;2.45;2.17;;;;;;;20.15;89.91;99925.47;6223017;28;20050;-71
2023/07/16 02:50:45;;;;;;;2.50;2.07;;;;;;;20.11;89.82;99928.41;6223200;28;20418;-71
2023/07/16 02:53:46;;;;;;;3.67;2.53;;;;;;;20.16;88.99;99925.31;6221750;28;20053;-71
2023/07/16 02:56:49;;;;;;;3.13;2.37;;;;;;;20.05;88.92;99933.53;6222028;28;20054;-72
2023/07/16 02:59:50;;;;;;;4.72;2.70;;;;;;;19.97;89.75;99928.19;6222870;28;20050;-72
2023/07/16 03:02:51;;;;;;;2.30;1.90;;;;;;;20.01;91.29;99924.22;6221957;28;20056;-72
2023/07/16 03:05:51;;;;;;;5.93;2.10;;;;;;;20.03;90.37;99930.19;6221748;28;20140;-71
2023/07/16 03:08:54;;;;;;;3.33;2.43;;;;;;;20.01;90.39;99922.41;6222739;28;20045;-72
2023/07/16 03:11:57;;;;;;;4.75;2.65;;;;;;;20.02;91.42;99918.78;6222687;28;20092;-71
2023/07/16 03:14:59;;;;;;;4.22;2.58;;;;;;;19.94;90.92;99916.09;6222388;28;20077;-71
2023/07/16 03:17:59;;;;;;;3.47;2.17;;;;;;;19.89;92.09;99915.72;6221318;28;20054;-72
2023/07/16 03:21:00;;;;;;;6.53;1.90;;;;;;;20.00;91.14;99917.28;6222541;28;20046;-72
2023/07/16 03:24:01;;;;;;;2.90;2.07;;;;;;;20.00;90.90;99922.59;6222669;28;20091;-72
2023/07/16 03:27:01;;;;;;;2.80;2.07;;;;;;;19.99;91.63;99921.72;6221280;28;20069;-71
2023/07/16 03:30:04;;;;;;;2.77;2.40;;;;;;;19.91;92.35;99925.19;6221178;28;20062;-72
2023/07/16 03:33:05;;;;;;;3.13;2.47;;;;;;;19.96;92.86;99923.88;6222440;28;20494;-72
2023/07/16 03:36:06;;;;;;;2.50;2.00;;;;;;;20.00;91.71;99923.41;6221291;28;20065;-71
2023/07/16 03:39:07;;;;;;;3.92;2.33;;;;;;;20.00;93.08;99931.34;6221262;28;20053;-71
2023/07/16 03:42:07;;;;;;;3.57;2.53;;;;;;;20.03;91.09;99935.50;6222047;28;20054;-71
2023/07/16 03:45:10;;;;;;;2.07;1.87;;;;;;;20.02;91.01;99937.31;6220546;28;20053;-72
2023/07/16 03:48:10;;;;;;;2.88;2.30;;;;;;;20.06;91.14;99940.50;6222878;28;20403;-72
2023/07/16 03:51:11;;;;;;;4.17;2.47;;;;;;;20.13;90.28;99933.56;6227297;28;20046;-71
2023/07/16 03:54:12;;;;;;;3.87;2.50;;;;;;;20.09;90.58;99927.75;6226806;28;20049;-71
2023/07/16 03:57:13;;;;;;;3.37;2.53;;;;;;;20.19;91.23;99940.88;6227169;28;20425;-71
2023/07/16 04:00:13;;;;;;;3.10;2.47;;;;;;;20.18;90.89;99938.38;6226508;28;20057;-72
2023/07/16 04:03:14;;;;;;;3.07;2.10;;;;;;;20.25;89.82;99936.78;6226722;28;20528;-72
2023/07/16 04:06:15;;;;;;;7.20;2.67;;;;;;;20.31;90.16;99941.44;6225643;28;20089;-72
2023/07/16 04:09:16;;;;;;;4.43;2.47;;;;;;;20.42;89.78;99935.00;6225477;28;20053;-71
2023/07/16 04:12:16;;;;;;;4.53;2.10;;;;;;;20.45;89.56;99942.66;6226725;28;20053;-72
2023/07/16 04:15:17;;;;;;;3.50;2.30;;;;;;;20.40;88.65;99940.47;6225244;28;20099;-71
2023/07/16 04:18:18;;;;;;;12.97;2.37;;;;;;;20.49;88.99;99944.81;6226557;28;20050;-71
2023/07/16 04:21:18;;;;;;;3.53;2.47;;;;;;;20.53;89.42;99943.50;6226249;28;20053;-72
2023/07/16 04:24:19;;;;;;;4.70;2.50;;;;;;;20.65;88.62;99948.53;6226573;28;20046;-72
2023/07/16 04:27:20;;;;;;;5.93;2.53;;;;;;;20.63;87.43;99943.41;6225083;28;20053;-72
2023/07/16 04:30:21;;;;;;;3.57;2.53;;;;;;;20.75;87.58;99949.22;6224941;28;20461;-71
2023/07/16 04:33:24;;;;;;;2.50;2.10;;;;;;;20.85;87.94;99941.13;6225104;28;20046;-72
2023/07/16 04:36:25;;;;;;;2.65;2.17;;;;;;;20.84;87.26;99950.09;6225238;28;20054;-72
2023/07/16 04:39:25;;;;;;;3.37;2.23;;;;;;;20.95;87.49;99946.28;6226430;28;20050;-73
2023/07/16 04:42:26;;;;;;;3.43;2.60;;;;;;;20.97;88.72;99946.97;6226054;28;20288;-72
2023/07/16 04:45:27;;;;;;;3.07;2.50;;;;;;;21.01;89.58;99946.47;6225965;28;20508;-72
2023/07/16 04:48:30;;;;;;;3.37;2.60;;;;;;;21.16;86.75;99951.94;6224796;28;20513;-72
2023/07/16 04:51:30;;;;;;;10.20;2.55;;;;;;;21.26;87.05;99949.94;6224826;28;20555;-72
2023/07/16 04:54:38;;;;;;;4.67;2.27;;;;;;;21.41;85.36;99955.41;6224239;28;20046;-72
2023/07/16 04:57:39;;;;;;;2.95;2.30;;;;;;;21.52;85.46;99954.31;6224154;28;20457;-71
2023/07/16 05:00:40;;;;;;;6.20;2.50;;;;;;;21.61;85.99;99949.81;6224978;28;20058;-71
2023/07/16 05:03:41;;;;;;;3.47;2.37;;;;;;;21.64;84.96;99954.78;6225519;28;20504;-71
2023/07/16 05:06:41;;;;;;;3.10;2.40;;;;;;;21.72;84.93;99963.59;6225403;28;20053;-72
2023/07/16 05:09:45;;;;;;;3.10;2.30;;;;;;;21.86;83.46;99966.53;6224454;28;20107;-72
2023/07/16 05:12:45;;;;;;;4.80;2.30;;;;;;;21.87;82.87;99971.69;6225265;28;20065;-71
2023/07/16 05:15:47;;;;;;;8.17;2.60;;;;;;;22.08;81.58;99983.59;6223773;28;20046;-71
2023/07/16 05:18:47;;;;;;;3.80;2.83;;;;;;;22.17;81.22;99989.72;6223729;28;20053;-71
2023/07/16 05:21:48;;;;;;;5.03;2.70;;;;;;;22.31;79.37;99995.16;6223907;28;20506;-72
2023/07/16 05:24:49;;;;;;;4.97;2.90;;;;;;;22.33;78.13;99989.69;6223892;28;20108;-72
2023/07/16 05:27:49;;;;;;;4.63;2.90;;;;;;;22.50;79.91;99999.25;6225012;28;20084;-72
2023/07/16 05:31:03;;;;;;;3.97;3.00;;;;;;;22.62;79.99;99999.72;6224860;28;20058;-72
2023/07/16 05:34:03;;;;;;;5.22;2.40;;;;;;;22.89;78.12;99997.59;6224532;28;20379;-71
2023/07/16 05:37:05;;;;;;;4.67;2.50;;;;;;;23.11;75.27;99996.81;6224585;28;20050;-71
2023/07/16 05:40:08;;;;;;;3.47;2.70;;;;;;;23.27;76.17;100003.88;6221967;28;20399;-71
2023/07/16 05:43:11;;;;;;;2.75;2.50;;;;;;;23.34;75.77;100010.13;6224859;28;20049;-73
2023/07/16 05:46:12;;;;;;;3.65;2.20;;;;;;;23.45;74.29;100002.72;6224698;28;20058;-72
2023/07/16 05:49:13;;;;;;;3.57;2.47;;;;;;;23.75;73.39;100011.63;6224774;28;20046;-71
2023/07/16 05:52:14;;;;;;;4.77;2.43;;;;;;;23.91;75.07;100000.03;6239638;28;20088;-72
2023/07/16 05:55:15;;;;;;;4.10;2.40;;;;;;;24.08;74.68;99995.34;6222845;28;20060;-71
2023/07/16 05:58:16;;;;;;;2.73;2.30;;;;;;;24.34;73.87;99998.38;6223216;28;20072;-72
2023/07/16 06:01:17;;;;;;;2.90;2.40;;;;;;;24.58;70.58;100004.47;6222642;28;20057;-72
2023/07/16 06:04:18;;;;;;;9.13;3.10;;;;;;;24.66;72.35;100009.69;6224117;28;20461;-72
2023/07/16 06:07:18;;;;;;;6.40;2.97;;;;;;;24.77;71.09;100010.22;6223954;28;20050;-72
2023/07/16 06:10:19;;;;;;;5.27;3.40;;;;;;;24.98;72.30;100015.63;6222404;28;20140;-73
2023/07/16 06:13:22;;;;;;;4.03;3.00;;;;;;;25.18;68.14;100015.81;6222051;28;20073;-72
2023/07/16 06:16:23;;;;;;;6.47;2.40;;;;;;;25.38;67.62;100009.88;6224030;28;20049;-73
2023/07/16 06:19:24;;;;;;;3.45;1.95;;;;;;;25.60;67.01;100016.88;6222873;28;20049;-73
2023/07/16 06:22:25;;;;;;;4.27;2.60;;;;;;;25.77;66.96;100013.91;6223774;28;20049;-73
2023/07/16 06:25:25;;;;;;;3.23;2.17;;;;;;;26.05;63.53;100019.31;6222577;28;20060;-73
2023/07/16 06:28:26;;;;;;;4.83;1.90;;;;;;;26.16;59.10;100013.38;6222207;28;20050;-73
2023/07/16 06:31:27;;;;;;;2.17;1.88;;;;;;;26.46;61.13;100019.34;6222710;28;20085;-73
2023/07/16 06:34:28;;;;;;;3.40;2.13;;;;;;;26.64;57.22;100016.13;6223156;28;20121;-74
2023/07/16 06:37:31;;;;;;;2.85;2.00;;;;;;;26.69;55.18;100020.91;6222332;28;20513;-74
2023/07/16 06:40:32;;;;;;;2.40;2.05;;;;;;;26.79;56.40;100025.84;6222061;28;20583;-71
2023/07/16 06:43:33;;;;;;;5.50;2.28;;;;;;;27.12;56.91;100031.34;6222511;28;20054;-70
2023/07/16 06:46:33;;;;;;;3.67;1.87;;;;;;;27.23;55.20;100025.41;6221867;28;20049;-72
2023/07/16 06:49:34;;;;;;;3.90;2.40;;;;;;;27.29;53.78;100032.63;6222966;28;20279;-70
2023/07/16 06:52:35;;;;;;;5.40;2.00;;;;;;;27.51;53.71;100025.25;6221915;28;20046;-72
2023/07/16 06:55:36;;;;;;;7.60;2.20;;;;;;;27.64;54.62;100019.06;6222962;28;20534;-72
2023/07/16 06:58:37;;;;;;;;;;;;;;;27.77;53.18;100025.44;6223374;28;20045;-72
2023/07/16 07:01:38;;;;;;;3.03;2.17;;;;;;;28.01;55.30;100030.19;6221522;28;20270;-72
2023/07/16 07:04:39;;;;;;;4.13;2.20;;;;;;;28.11;52.92;100024.41;6223173;28;20090;-71
2023/07/16 07:07:39;;;;;;;4.00;2.40;;;;;;;28.27;53.21;100025.81;6221738;28;20283;-72
2023/07/16 07:10:40;;;;;;;2.83;2.03;;;;;;;28.50;51.00;100025.38;6221484;28;20050;-71
2023/07/16 07:13:42;;;;;;;2.55;2.33;;;;;;;28.73;50.82;100028.38;6221403;28;20327;-71
2023/07/16 07:16:42;;;;;;;4.60;2.50;;;;;;;28.86;51.74;100019.44;6222274;28;20092;-71
2023/07/16 07:19:46;;;;;;;3.42;2.10;;;;;;;29.02;52.96;100014.59;6221610;28;20103;-72
2023/07/16 07:22:46;;;;;;;4.00;2.20;;;;;;;29.29;52.19;100012.59;6221517;28;20053;-72
2023/07/16 07:25:51;;;;;;;2.45;2.00;;;;;;;29.41;49.96;100015.41;6222247;28;20050;-71
2023/07/16 07:28:51;;;;;;;5.47;2.30;;;;;;;29.56;49.26;100015.09;6220999;28;20141;-71
2023/07/16 07:31:52;;;;;;;2.88;2.10;;;;;;;29.69;48.53;100013.13;6221243;28;20418;-71
2023/07/16 07:34:53;;;;;;;3.75;2.20;;;;;;;29.81;49.57;100018.63;6221955;28;20482;-71
2023/07/16 07:37:54;;;;;;;3.60;2.20;;;;;;;29.91;47.44;100026.19;6220959;28;20108;-71
2023/07/16 07:40:54;;;;;;;2.58;2.10;;;;;;;29.96;50.68;100017.44;6220961;28;20084;-72
2023/07/16 07:43:58;;;;;;;2.33;2.10;;;;;;;30.17;49.14;100019.72;6221135;28;20417;-72
2023/07/16 07:46:58;;;;;;;3.72;2.30;;;;;;;30.20;47.23;100019.25;6222191;28;20057;-71
2023/07/16 07:49:59;;;;;;;5.18;1.77;;;;;;;30.46;47.04;100010.09;6222052;28;20049;-72
2023/07/16 07:53:00;;;;;;;3.85;1.90;;;;;;;30.56;45.40;100009.59;6222021;28;20046;-72
2023/07/16 07:56:05;;;;;;;3.17;2.13;;;;;;;30.85;45.94;100013.34;6220716;28;20487;-72
2023/07/16 07:59:06;;;;;;;1.80;1.70;;;;;;;30.85;46.06;100015.22;6220916;28;20057;-72
2023/07/16 08:02:07;;;;;;;;;;;;;;;31.16;42.77;100018.75;6217884;28;20064;-71
2023/07/16 08:17:41;;;;;;;2.13;1.77;;;;;;;31.82;45.18;100008.81;6285521;27;20739;-73
2023/07/16 08:20:42;;;;;;;2.35;1.83;;;;;;;32.05;44.52;100011.50;6265555;28;20057;-72
2023/07/16 08:23:43;;;;;;;;;;;;;;;32.30;41.48;100016.63;6271529;28;20041;-71
2023/07/16 08:26:44;;;;;;;1.93;1.63;;;;;;;32.28;41.03;100010.66;6268296;28;19925;-72
2023/07/16 08:29:45;;;;;;;3.28;1.80;;;;;;;32.45;42.39;100013.44;6273122;28;20085;-73
2023/07/16 08:32:48;;;;;;;;;;;;;;;32.69;43.54;100013.41;6264173;28;20048;-70
2023/07/16 08:35:48;;;;;;;4.88;1.45;;;;;;;32.89;40.75;100019.19;6269944;28;19920;-72
2023/07/16 08:38:49;;;;;;;;;;;;;;;33.01;40.20;100019.13;6270630;28;20056;-71
2023/07/16 08:41:53;;;;;;;4.05;1.60;;;;;;;33.09;39.57;100017.94;6267541;28;19927;-74
2023/07/16 08:44:54;;;;;;;2.40;1.60;;;;;;;33.03;38.38;100016.19;6277574;28;20493;-74
2023/07/16 08:47:57;;;;;;;2.08;1.63;;;;;;;33.16;38.27;100009.69;6266809;28;20110;-74
2023/07/16 08:51:03;;;;;;;1.83;1.45;;;;;;;33.30;38.68;100014.53;6283227;28;20052;-74
2023/07/16 08:54:04;;;;;;;2.35;1.40;;;;;;;33.33;38.20;100007.81;6292440;28;20060;-74
2023/07/16 08:57:08;;;;;;;;;;;;;;;33.64;37.93;100016.44;6292597;28;20049;-72
2023/07/16 09:00:10;;;;;;;2.00;1.70;;;;;;;33.89;36.80;100002.47;6268655;28;20372;-74
2023/07/16 09:03:16;;;;;;;1.48;1.35;;;;;;;33.90;40.26;100012.25;6289437;28;20382;-72
2023/07/16 09:06:17;;;;;;;1.95;1.40;;;;;;;34.07;37.97;100010.31;6291891;28;20416;-72
2023/07/16 09:09:22;;;;;;;1.90;1.50;;;;;;;34.03;36.68;100009.19;6291816;28;20056;-75
2023/07/16 09:12:24;;;;;;;1.70;1.60;;;;;;;34.14;36.38;100014.75;6291803;28;20051;-72
2023/07/16 09:15:28;;;;;;;2.08;1.52;;;;;;;34.16;36.19;100018.84;6291611;28;20045;-72
2023/07/16 09:18:29;;;;;;;2.75;1.60;;;;;;;34.21;35.43;100015.41;6270486;28;20049;-74
2023/07/16 09:21:33;;;;;;;1.98;1.38;;;;;;;34.01;37.64;100005.09;6275488;28;20143;-75
2023/07/16 09:24:35;;;;;;;1.33;1.23;;;;;;;34.37;36.81;100010.97;6273864;28;20051;-71
2023/07/16 09:27:36;;;;;;;2.35;1.60;;;;;;;34.49;37.80;100011.69;6273960;28;20416;-73
2023/07/16 09:30:37;;;;;;;2.28;1.73;;;;;;;34.77;37.75;100012.56;6275116;28;20052;-74
2023/07/16 09:33:40;;;;;;;1.60;1.50;;;;;;;34.77;35.79;100010.69;6256374;28;20053;-75
2023/07/16 09:36:41;;;;;;;1.92;1.40;;;;;;;34.50;36.55;100010.63;6249144;28;20464;-72
2023/07/16 09:39:43;;;;;;;1.35;1.25;;;;;;;34.76;37.74;100006.34;6254399;28;20053;-74
2023/07/16 09:42:43;;;;;;;1.80;1.38;;;;;;;34.94;39.36;100004.34;6274745;28;20060;-75
2023/07/16 09:45:45;;;;;;;1.63;1.35;;;;;;;35.08;36.38;100009.09;6274493;28;20060;-72
2023/07/16 09:48:45;;;;;;;1.30;1.20;;;;;;;35.37;33.26;99995.25;6259950;28;20227;-75
2023/07/16 09:51:48;;;;;;;1.70;1.33;;;;;;;35.35;32.50;99994.69;6273691;28;20519;-72
2023/07/16 09:54:52;;;;;;;3.10;1.63;;;;;;;35.48;31.77;99993.44;6263524;28;20042;-75
2023/07/16 09:57:56;;;;;;;1.23;1.00;;;;;;;35.27;33.18;100003.31;6248944;28;20045;-74
2023/07/16 10:00:58;;;;;;;1.88;1.20;;;;;;;35.46;32.88;100006.44;6258322;28;20045;-73
2023/07/16 10:03:59;;;;;;;1.35;1.25;;;;;;;35.25;31.21;99998.16;6254268;28;20056;-72
2023/07/16 10:07:00;;;;;;;1.52;1.05;;;;;;;35.64;30.82;99997.09;6273453;28;20044;-73
2023/07/16 10:10:08;;;;;;;2.15;1.20;;;;;;;35.67;32.11;99986.56;6269826;28;20057;-74
2023/07/16 10:13:12;;;;;;;2.63;1.40;;;;;;;35.84;30.97;99989.09;6267721;28;20060;-73
2023/07/16 10:16:22;;;;;;;1.55;1.10;;;;;;;35.96;34.37;99993.53;6268892;28;20136;-73
2023/07/16 10:19:23;;;;;;;1.92;1.33;;;;;;;36.09;31.66;99995.75;6272917;28;20135;-74
2023/07/16 10:22:37;;;;;;;2.17;1.20;;;;;;;35.97;31.40;99995.94;6259996;28;20500;-70
2023/07/16 10:25:37;;;;;;;2.75;1.20;;;;;;;36.08;30.81;99988.69;6258271;28;20481;-73
2023/07/16 10:28:39;;;;;;;1.40;1.17;;;;;;;36.03;30.32;99989.47;6257027;28;20088;-73
2023/07/16 10:31:39;;;;;;;2.05;1.15;;;;;;;36.33;31.72;99984.50;6249001;28;20088;-72
2023/07/16 10:34:41;;;;;;;2.58;0.90;;;;;;;36.65;31.46;99989.75;6253523;28;20049;-73
2023/07/16 10:37:41;;;;;;;3.05;1.30;;;;;;;36.72;30.66;99990.34;6269039;28;20048;-72
2023/07/16 10:40:46;;;;;;;1.33;1.23;;;;;;;36.83;30.06;99983.00;6272292;28;20469;-72
2023/07/16 10:43:46;;;;;;;3.03;1.15;;;;;;;36.77;34.80;99984.09;6258611;28;20053;-72
2023/07/16 10:46:47;;;;;;;1.60;1.30;;;;;;;36.54;31.93;99983.47;6258717;28;20045;-72
2023/07/16 10:49:54;;;;;;;2.55;1.40;;;;;;;36.75;32.05;99984.34;6272718;28;20203;-72
2023/07/16 10:52:56;;;;;;;2.30;1.38;;;;;;;36.88;30.48;99989.28;6273023;28;20409;-72
2023/07/16 10:55:59;;;;;;;2.40;1.38;;;;;;;37.03;29.46;99987.66;6271593;28;20392;-72
2023/07/16 10:59:01;;;;;;;1.70;1.30;;;;;;;37.08;30.78;99980.28;6272901;28;20152;-72
2023/07/16 11:02:05;;;;;;;2.75;1.40;;;;;;;37.36;32.55;99990.97;6262050;28;20061;-72
2023/07/16 11:05:15;;;;;;;1.17;1.05;;;;;;;37.58;31.08;99982.50;6250163;28;20053;-72
2023/07/16 11:08:26;;;;;;;3.17;1.42;;;;;;;36.89;30.07;99984.66;6246829;28;20053;-72
2023/07/16 11:11:30;;;;;;;1.80;1.20;;;;;;;37.10;29.94;99985.47;6264191;28;20057;-72
2023/07/16 11:14:30;;;;;;;3.05;1.50;;;;;;;37.12;30.58;99986.06;6271370;28;20476;-72
2023/07/16 11:17:32;;;;;;;5.10;1.10;;;;;;;37.18;29.05;99984.16;6271310;28;20053;-74
2023/07/16 11:20:33;;;;;;;3.17;1.60;;;;;;;37.01;27.97;99974.31;6270391;28;20454;-72
2023/07/16 11:23:34;;;;;;;2.05;1.40;;;;;;;36.99;29.01;99975.69;6257337;28;20049;-72
2023/07/16 11:26:35;;;;;;;1.55;1.42;;;;;;;37.03;29.37;99971.34;6246411;28;20049;-72
2023/07/16 11:29:36;;;;;;;1.73;1.27;;;;;;;36.04;30.70;99971.31;6254639;28;20057;-71
2023/07/16 11:32:46;;;;;;;4.95;1.60;;;;;;;36.69;32.79;99964.53;6252523;28;20057;-71
2023/07/16 11:35:47;;;;;;;2.30;1.30;;;;;;;37.02;33.50;99959.63;6270574;28;20454;-70
2023/07/16 11:38:52;;;;;;;3.15;1.40;;;;;;;37.23;32.61;99962.38;6271284;28;20052;-73
2023/07/16 11:41:55;;;;;;;1.48;1.08;;;;;;;37.19;30.10;99953.97;6270726;28;20060;-71
2023/07/16 11:44:56;;;;;;;3.03;1.33;;;;;;;37.53;32.65;99961.53;6271784;28;20520;-71
2023/07/16 11:47:59;;;;;;;1.98;1.17;;;;;;;37.70;30.76;99964.81;6268359;28;20049;-72
2023/07/16 11:51:03;;;;;;;2.25;1.17;;;;;;;37.86;31.48;99956.59;6249613;28;20045;-72
2023/07/16 11:54:03;;;;;;;2.05;1.20;;;;;;;37.88;27.05;99959.84;6267551;28;20056;-72
2023/07/16 11:57:04;;;;;;;1.77;1.30;;;;;;;37.74;29.56;99951.44;6270420;28;20047;-72
2023/07/16 12:00:06;;;;;;;2.28;1.10;;;;;;;37.88;30.55;99957.94;6254954;28;20136;-72
2023/07/16 12:03:07;;;;;;;2.10;1.30;;;;;;;37.63;26.13;99955.28;6246957;28;20053;-72
2023/07/16 12:06:11;;;;;;;3.25;1.48;;;;;;;37.75;28.34;99955.00;6246455;28;20182;-72
2023/07/16 12:09:11;;;;;;;2.67;1.27;;;;;;;37.85;28.58;99952.25;6271471;28;20056;-72
2023/07/16 12:12:14;;;;;;;4.97;1.52;;;;;;;37.78;29.30;99947.06;6271279;28;20114;-72
2023/07/16 12:15:15;;;;;;;1.35;1.23;;;;;;;38.04;27.88;99945.13;6269832;28;20098;-72
2023/07/16 12:18:15;;;;;;;2.13;1.10;;;;;;;37.83;30.35;99951.72;6265055;28;20551;-72
2023/07/16 12:21:18;;;;;;;1.48;1.17;;;;;;;37.65;26.92;99953.13;6259824;28;20052;-72
2023/07/16 12:24:19;;;;;;;3.22;1.30;;;;;;;37.84;30.79;99943.25;6254414;28;20049;-72
2023/07/16 12:27:20;;;;;;;3.05;1.77;;;;;;;37.74;29.85;99951.44;6270768;28;20045;-72
2023/07/16 12:30:21;;;;;;;2.33;1.85;;;;;;;37.69;32.20;99946.84;6249877;28;20481;-72
2023/07/16 12:33:22;;;;;;;2.35;1.33;;;;;;;37.62;30.16;99951.78;6245196;28;20046;-71
2023/07/16 12:36:22;;;;;;;1.67;1.30;;;;;;;37.36;28.96;99948.25;6247273;28;20041;-72
2023/07/16 12:39:23;;;;;;;1.80;1.38;;;;;;;37.40;29.79;99945.78;6264857;28;20052;-72
2023/07/16 12:42:24;;;;;;;3.58;1.23;;;;;;;37.46;31.76;99948.22;6268974;28;20103;-72
2023/07/16 12:45:25;;;;;;;2.72;1.48;;;;;;;37.50;32.42;99940.34;6271181;28;20045;-72
2023/07/16 12:48:25;;;;;;;1.33;1.20;;;;;;;37.36;29.87;99940.06;6268885;28;20063;-72
2023/07/16 12:51:26;;;;;;;1.38;1.27;;;;;;;37.37;29.39;99943.59;6258904;28;20187;-72
2023/07/16 12:54:27;;;;;;;2.50;1.60;;;;;;;37.43;27.71;99934.34;6249931;28;20137;-71
2023/07/16 12:57:30;;;;;;;3.03;1.38;;;;;;;37.30;32.26;99947.41;6250766;28;20049;-70
2023/07/16 13:00:31;;;;;;;4.18;1.40;;;;;;;37.42;29.98;99936.25;6249898;28;20049;-73
2023/07/16 13:03:31;;;;;;;2.67;1.10;;;;;;;37.60;30.34;99934.06;6250772;28;20180;-71
2023/07/16 13:06:32;;;;;;;4.18;1.60;;;;;;;37.68;28.83;99928.88;6261565;28;20390;-70
2023/07/16 13:09:33;;;;;;;1.70;1.40;;;;;;;37.49;26.73;99931.34;6250916;28;20053;-70
2023/07/16 13:12:33;;;;;;;4.07;1.30;;;;;;;37.46;28.25;99920.22;6260948;28;20080;-71
2023/07/16 13:15:34;;;;;;;1.92;1.30;;;;;;;37.27;31.99;99925.38;6273740;28;20052;-71
2023/07/16 13:18:35;;;;;;;6.50;1.40;;;;;;;37.35;29.87;99924.03;6275345;28;20084;-71
2023/07/16 13:21:36;;;;;;;1.95;1.33;;;;;;;37.45;28.82;99922.09;6273952;28;20093;-71
2023/07/16 13:24:39;;;;;;;2.33;1.30;;;;;;;37.59;28.73;99924.28;6275283;28;20115;-72
2023/07/16 13:27:40;;;;;;;2.58;1.30;;;;;;;37.40;28.72;99927.56;6273980;28;20084;-72
2023/07/16 13:30:40;;;;;;;2.28;1.40;;;;;;;37.40;27.19;99918.59;6275232;28;20447;-72
2023/07/16 13:33:41;;;;;;;3.35;1.50;;;;;;;37.17;31.97;99914.50;6273659;28;20454;-70
2023/07/16 13:36:42;;;;;;;4.63;1.30;;;;;;;36.83;28.70;99912.34;6274689;28;20060;-71
2023/07/16 13:39:43;;;;;;;2.78;1.23;;;;;;;36.93;31.16;99916.97;6274791;28;20076;-72
2023/07/16 13:42:43;;;;;;;1.50;1.40;;;;;;;36.84;29.55;99916.66;6273550;28;20416;-71
2023/07/16 13:45:47;;;;;;;1.23;1.08;;;;;;;36.89;31.47;99914.78;6274725;28;20053;-71
2023/07/16 13:48:47;;;;;;;2.85;1.52;;;;;;;36.90;31.99;99910.97;6268523;28;20068;-70
2023/07/16 13:51:50;;;;;;;2.70;1.50;;;;;;;36.78;29.65;99909.59;6264139;28;20496;-73
2023/07/16 13:54:51;;;;;;;2.92;1.50;;;;;;;36.79;28.54;99901.19;6267720;28;20136;-70
2023/07/16 13:57:52;;;;;;;3.25;1.85;;;;;;;36.85;34.09;99907.44;6249768;28;20511;-72
2023/07/16 14:00:53;;;;;;;2.58;1.63;;;;;;;36.60;33.32;99898.16;6248669;28;20156;-72
2023/07/16 14:03:54;;;;;;;2.95;1.48;;;;;;;36.43;33.65;99900.31;6273484;28;20136;-71
2023/07/16 14:06:56;;;;;;;2.25;1.50;;;;;;;36.47;31.49;99895.97;6274086;28;20048;-70
2023/07/16 14:09:56;;;;;;;7.07;1.33;;;;;;;36.69;33.58;99893.84;6273998;28;20049;-72
2023/07/16 14:12:57;;;;;;;1.60;1.27;;;;;;;36.43;30.18;99890.25;6269508;28;20151;-74
2023/07/16 14:15:58;;;;;;;1.63;1.40;;;;;;;36.51;31.64;99889.72;6272436;28;20493;-72
2023/07/16 14:18:59;;;;;;;2.97;1.40;;;;;;;36.15;29.60;99886.09;6274083;28;20138;-74
2023/07/16 14:22:02;;;;;;;2.00;1.30;;;;;;;35.99;31.72;99895.25;6273756;28;20191;-74
2023/07/16 14:25:03;;;;;;;2.22;1.40;;;;;;;35.86;34.14;99875.66;6272637;28;20041;-74
2023/07/16 14:28:04;;;;;;;3.88;1.88;;;;;;;35.92;31.25;99896.31;6273603;28;20049;-72